San Diego, CA

11:59 PDT le 25 octobre 2014 (GMT -0700)
Embarcadero North | Change Station
CLOSE
Current Station
Stations météorologiques personnelles
Location: San Diego, CA
Altitude: 10 ft
Stations météo à proximité
Avis météorologiques actifs: Beach Hazard Statement

Alt. 10 ft 32.72 °N, 117.17 °W | Updated 2 seconds ago

Scattered Clouds
Nuages épars
71.3 ° F
Paraît 72 ° F
N
0.0
Vent Variable Vent de Ouest
Gusts 1.8 mph

Aujourd'hui
Haut(e) -- | Bas -- ° F
--% Risque de précip.
Hier
Haut(e) -- | Bas -- ° F
Precip. -- pouce
7:00 AM 6:04 PM
Lune montante, 4% visible
Pression 30.06 pouce
Visibilité 8.0 Miles terrestres
Nuages Nuages épars 1500 ft
Nuages épars 20000 ft
indice de chaleur 72 ° F
Point de rosée 65 ° F
Humidité 80%
Précipitations 0.00 pouce
Profondeur de la couche neigeuse Non disponible.
UV 5 sur 12
Pollen 3.90 sur 12
Ozone Bon
PM2.5 Moyen
Flu Activity Sporadic
METAR KSAN 251851Z 21005KT 8SM SCT015 SCT200 24/16 A3006 RMK AO2 SLP177 T02440161 $

More Conditions Fewer Conditions

Pression 30.06 pouce
Visibilité 8.0 Miles terrestres
Nuages Nuages épars 1500 ft
Nuages épars 20000 ft
indice de chaleur 72 ° F
Point de rosée 65 ° F
Humidité 80%
Précipitations 0.00 pouce
Profondeur de la couche neigeuse Non disponible.
UV 5 sur 12
Pollen 3.90 sur 12
Ozone Bon
PM2.5 Moyen
Flu Activity Sporadic
METAR KSAN 251851Z 21005KT 8SM SCT015 SCT200 24/16 A3006 RMK AO2 SLP177 T02440161 $

More Conditions Fewer Conditions

10-Day Weather Forecast

Almanac

Astronomie

Oct. 25, 2014 Lever Coucher
Temps réel 07:00 PDT 18:04 PDT
Crépuscule civil 06:35 PDT 18:29 PDT
Crépuscule nautique 06:06 PDT 18:58 PDT
Crépuscule astronomique 05:37 PDT 19:27 PDT
Lune 08:39 PDT 19:35 PDT
Durée de lumière visible 11h 54m
Longueur du jour
11h 03m
Tomorrow will be 1m 51s shorter.
Lune montante, 4% of the Moon is Illuminated
Aujourd'hui
Lune montante
Oct 30
Premier quartier
Nov 6
Pleine lune
Nov 14
Dernier quartier
Nov 22
Nouveau

Extrêmes aujourd'hui

State Highs State Lows

Community

WunderPhotos

Upload Photos

1,764,954 Photos téléchargées !

Nearby

Qualité de l'air

  Qualité de l'air Indice de la qualité de l'air Polluant
Hier Moyen
OZONE
Hier Moyen
PM2.5
Actuel Moyen
PM2.5
Actuel Bon
OZONE
samedi Moyen
PM2.5
samedi Bon
OZONE
dimanche Bon
PM2.5
dimanche Bon
OZONE
lundi Bon
PM2.5
lundi Bon
OZONE

Épaisseur de neige

Station Depth Altitude
Virginia Lakes Ridge 0 in 9200 ft
Leavitt Lake 0 in 9400 ft
Leavitt Meadows 0 in 7200 ft
Sonora Pass 0 in 8800 ft
Summit Meadow 0 in 9122 ft

Activité sismique

Ville Distance Mag. Time & Date
Running Springs, California 108 Miles terrestres 3.1 04:07 PDT
2014-10-25
Maneadero, Mexico 108 Miles terrestres 2.5 07:44 PDT
2014-10-24
San Felipe, Mexico 130 Miles terrestres 3.0 23:00 PDT
2014-10-23
Brea, California 93 Miles terrestres 2.9 15:35 PDT
2014-10-23
Minimum magnitude displayed is 2.5.

Températures des eaux côtières

Lieu Température
La Jolla, CA 70.0 ° F
San Diego, CA 73.9 ° F

Stations météo à proximité